createdAt,value
2023-05-17T00:01:04.705Z,14.19
2023-05-17T00:03:31.560Z,14.17
2023-05-17T00:05:58.626Z,14.14
2023-05-17T00:08:25.441Z,14.12
2023-05-17T00:10:52.590Z,14.08
2023-05-17T00:13:19.415Z,14.09
2023-05-17T00:15:46.623Z,14.09
2023-05-17T00:18:13.487Z,14.11
2023-05-17T00:20:40.655Z,14.12
2023-05-17T00:23:07.538Z,14.16
2023-05-17T00:25:34.725Z,14.17
2023-05-17T00:28:01.552Z,14.16
2023-05-17T00:30:28.669Z,14.13
2023-05-17T00:32:55.620Z,14.11
2023-05-17T00:35:22.851Z,14.09
2023-05-17T00:37:49.749Z,14.10
2023-05-17T00:40:16.990Z,14.10
2023-05-17T00:42:43.827Z,14.11
2023-05-17T00:45:12.130Z,14.11
2023-05-17T00:47:39.161Z,14.11
2023-05-17T00:50:06.776Z,14.12
2023-05-17T00:52:33.667Z,14.16
2023-05-17T00:55:00.852Z,14.16
2023-05-17T00:57:29.344Z,14.17
2023-05-17T00:59:56.825Z,14.17
2023-05-17T01:02:23.931Z,14.19
2023-05-17T01:04:51.313Z,14.21
2023-05-17T01:07:18.398Z,14.20
2023-05-17T01:09:45.790Z,14.21
2023-05-17T01:12:15.927Z,14.22
2023-05-17T01:14:43.021Z,14.23
2023-05-17T01:17:16.927Z,14.23
2023-05-17T01:19:55.207Z,14.21
2023-05-17T01:22:40.388Z,14.18
2023-05-17T01:25:26.135Z,14.20
2023-05-17T01:27:54.558Z,14.22
2023-05-17T01:30:25.118Z,14.24
2023-05-17T01:32:53.316Z,14.24
2023-05-17T01:35:20.471Z,14.24
2023-05-17T01:37:47.525Z,14.26
2023-05-17T01:40:14.677Z,14.24
2023-05-17T01:42:42.705Z,14.24
2023-05-17T01:45:19.178Z,14.26
2023-05-17T01:47:50.871Z,14.25
2023-05-17T01:50:20.932Z,14.24
2023-05-17T01:52:53.627Z,14.24
2023-05-17T01:55:26.776Z,14.24
2023-05-17T01:57:55.972Z,14.24
2023-05-17T02:00:24.852Z,14.20
2023-05-17T02:02:51.805Z,14.17
2023-05-17T02:05:19.162Z,14.16
2023-05-17T02:07:46.018Z,14.15
2023-05-17T02:10:13.352Z,14.14
2023-05-17T02:12:40.357Z,14.11
2023-05-17T02:15:09.738Z,14.09
2023-05-17T02:17:36.645Z,14.09
2023-05-17T02:20:03.977Z,14.08
2023-05-17T02:22:30.863Z,14.09
2023-05-17T02:24:57.937Z,14.08
2023-05-17T02:27:24.796Z,14.08
2023-05-17T02:29:51.889Z,14.07
2023-05-17T02:32:18.702Z,14.08
2023-05-17T02:34:45.941Z,14.08
2023-05-17T02:37:12.753Z,14.04
2023-05-17T02:39:39.881Z,14.04
2023-05-17T02:42:06.840Z,14.02
2023-05-17T02:44:33.878Z,14.05
2023-05-17T02:47:00.737Z,14.04
2023-05-17T02:49:27.873Z,14.05
2023-05-17T02:51:54.672Z,14.07
2023-05-17T02:54:21.758Z,14.08
2023-05-17T02:56:48.646Z,14.11
2023-05-17T02:59:15.708Z,14.03
2023-05-17T03:01:42.517Z,13.96
2023-05-17T03:04:09.635Z,13.93
2023-05-17T03:06:37.850Z,13.91
2023-05-17T03:09:04.968Z,13.91
2023-05-17T03:11:32.007Z,13.90
2023-05-17T03:13:59.274Z,13.93
2023-05-17T03:16:26.646Z,13.97
2023-05-17T03:18:53.957Z,14.01
2023-05-17T03:21:20.833Z,14.05
2023-05-17T03:23:47.928Z,14.08
2023-05-17T03:26:14.681Z,14.10
2023-05-17T03:28:41.767Z,14.12
2023-05-17T03:31:08.566Z,14.13
2023-05-17T03:33:35.913Z,14.18
2023-05-17T03:36:02.783Z,14.20
2023-05-17T03:38:29.938Z,14.21
2023-05-17T03:40:56.880Z,14.23
2023-05-17T03:43:24.011Z,14.27
2023-05-17T03:45:50.867Z,14.33
2023-05-17T03:48:18.083Z,14.39
2023-05-17T03:50:45.038Z,14.46
2023-05-17T03:53:12.130Z,14.51
2023-05-17T03:55:38.971Z,14.58
2023-05-17T03:58:07.249Z,14.60
2023-05-17T04:00:34.047Z,14.62
2023-05-17T04:03:01.180Z,14.55
2023-05-17T04:05:28.120Z,14.54
2023-05-17T04:07:55.434Z,14.51
2023-05-17T04:10:22.542Z,14.51
2023-05-17T04:12:50.077Z,14.55
2023-05-17T04:15:16.837Z,14.56
2023-05-17T04:17:43.996Z,14.61
2023-05-17T04:20:11.195Z,14.69
2023-05-17T04:22:38.209Z,14.74
2023-05-17T04:25:05.340Z,14.78
2023-05-17T04:27:32.447Z,14.84
2023-05-17T04:29:59.201Z,14.88
2023-05-17T04:32:26.430Z,14.95
2023-05-17T04:34:53.274Z,15.02
2023-05-17T04:37:20.373Z,15.06
2023-05-17T04:39:48.139Z,15.12
2023-05-17T04:42:15.392Z,15.18
2023-05-17T04:44:42.169Z,15.27
2023-05-17T04:47:09.399Z,15.39
2023-05-17T04:49:36.208Z,15.54
2023-05-17T04:52:05.932Z,15.76
2023-05-17T04:54:33.053Z,15.98
2023-05-17T04:57:00.104Z,16.23
2023-05-17T04:59:26.864Z,16.45
2023-05-17T05:01:54.055Z,16.65
2023-05-17T05:04:21.188Z,16.88
2023-05-17T05:06:48.317Z,17.12
2023-05-17T05:09:15.154Z,17.22
2023-05-17T05:11:42.184Z,17.35
2023-05-17T05:14:09.040Z,17.50
2023-05-17T05:16:36.610Z,17.54
2023-05-17T05:19:03.947Z,17.65
2023-05-17T05:21:31.260Z,17.75
2023-05-17T05:23:58.127Z,17.77
2023-05-17T05:26:25.272Z,17.72
2023-05-17T05:28:52.091Z,17.65
2023-05-17T05:31:19.190Z,17.64
2023-05-17T05:33:46.101Z,17.67
2023-05-17T05:36:13.327Z,17.72
2023-05-17T05:38:40.183Z,17.73
2023-05-17T05:41:07.391Z,17.69
2023-05-17T05:43:36.220Z,17.66
2023-05-17T05:46:03.866Z,17.63
2023-05-17T05:48:30.872Z,17.64
2023-05-17T05:50:58.076Z,17.59
2023-05-17T05:53:24.901Z,17.59
2023-05-17T05:55:52.243Z,17.61
2023-05-17T05:58:19.070Z,17.65
2023-05-17T06:00:46.199Z,17.67
2023-05-17T06:03:12.988Z,17.70
2023-05-17T06:05:40.685Z,17.66
2023-05-17T06:08:07.625Z,17.67
2023-05-17T06:10:34.677Z,17.71
2023-05-17T06:13:01.502Z,17.77
2023-05-17T06:15:28.952Z,17.78
2023-05-17T06:17:55.927Z,17.76
2023-05-17T06:20:23.112Z,17.72
2023-05-17T06:22:49.940Z,17.70
2023-05-17T06:25:17.015Z,17.73
2023-05-17T06:27:43.974Z,17.73
2023-05-17T06:30:11.543Z,17.75
2023-05-17T06:32:38.599Z,17.80
2023-05-17T06:35:07.042Z,17.93
2023-05-17T06:37:33.916Z,18.01
2023-05-17T06:40:15.355Z,18.07
2023-05-17T06:42:43.527Z,18.15
2023-05-17T06:45:11.957Z,18.23
2023-05-17T06:47:38.856Z,18.35
2023-05-17T06:50:07.030Z,18.43
2023-05-17T06:52:33.889Z,18.45
2023-05-17T06:55:00.960Z,18.51
2023-05-17T06:57:27.744Z,18.52
2023-05-17T06:59:54.809Z,18.63
2023-05-17T07:02:21.638Z,18.84
2023-05-17T07:04:48.913Z,18.91
2023-05-17T07:07:15.883Z,19.06
2023-05-17T07:09:42.990Z,19.29
2023-05-17T07:12:09.894Z,19.50
2023-05-17T07:14:36.927Z,19.66
2023-05-17T07:17:03.797Z,19.79
2023-05-17T07:19:31.087Z,19.93
2023-05-17T07:21:57.955Z,20.04
2023-05-17T07:24:25.028Z,20.20
2023-05-17T07:26:52.619Z,20.41
2023-05-17T07:29:19.948Z,20.63
2023-05-17T07:31:46.800Z,20.78
2023-05-17T07:34:14.144Z,20.91
2023-05-17T07:36:41.134Z,20.90
2023-05-17T07:39:09.305Z,20.84
2023-05-17T07:41:36.836Z,20.86
2023-05-17T07:44:04.035Z,20.90
2023-05-17T07:46:30.955Z,20.97
2023-05-17T07:48:58.954Z,21.06
2023-05-17T07:51:26.407Z,21.17
2023-05-17T07:53:53.618Z,21.32
2023-05-17T07:56:20.637Z,21.48
2023-05-17T07:58:47.966Z,21.63
2023-05-17T08:01:14.749Z,21.70
2023-05-17T08:03:48.397Z,21.76
2023-05-17T08:06:16.156Z,21.80
2023-05-17T08:08:43.719Z,21.80
2023-05-17T08:11:11.275Z,21.78
2023-05-17T08:13:38.330Z,21.72
2023-05-17T08:16:13.676Z,21.68
2023-05-17T08:18:42.564Z,21.64
2023-05-17T08:21:09.929Z,21.58
2023-05-17T08:23:37.056Z,21.52
2023-05-17T08:26:03.879Z,21.47
2023-05-17T08:28:30.948Z,21.42
2023-05-17T08:30:58.084Z,21.34
2023-05-17T08:33:26.347Z,21.30
2023-05-17T08:35:55.365Z,21.26
2023-05-17T08:38:22.670Z,21.27
2023-05-17T08:40:56.490Z,21.29
2023-05-17T08:43:27.359Z,21.37
2023-05-17T08:45:58.043Z,21.56
2023-05-17T08:48:26.673Z,21.98
2023-05-17T08:50:54.582Z,22.48
2023-05-17T08:53:22.224Z,22.95
2023-05-17T08:55:50.800Z,23.26
2023-05-17T08:58:21.456Z,23.45
2023-05-17T09:00:49.452Z,23.44
2023-05-17T09:03:18.181Z,23.28
2023-05-17T09:05:45.406Z,23.00
2023-05-17T09:08:14.291Z,22.72
2023-05-17T09:10:41.681Z,22.49
2023-05-17T09:13:11.674Z,22.36
2023-05-17T09:15:38.536Z,22.27
2023-05-17T09:18:05.809Z,22.17
2023-05-17T09:20:36.657Z,22.13
2023-05-17T09:23:07.597Z,22.08
2023-05-17T09:25:34.366Z,22.09
2023-05-17T09:28:08.085Z,22.07
2023-05-17T09:30:38.160Z,22.07
2023-05-17T09:33:08.938Z,22.04
2023-05-17T09:35:36.863Z,21.95
2023-05-17T09:38:11.481Z,21.76
2023-05-17T09:40:39.352Z,21.50
2023-05-17T09:43:07.024Z,21.26
2023-05-17T09:45:34.114Z,21.07
2023-05-17T09:48:30.956Z,20.94
2023-05-17T09:50:57.904Z,20.88
2023-05-17T09:53:29.297Z,20.85
2023-05-17T09:55:57.390Z,20.94
2023-05-17T09:58:25.379Z,21.08
2023-05-17T10:00:56.996Z,21.32
2023-05-17T10:03:27.332Z,21.65
2023-05-17T10:05:54.333Z,21.97
2023-05-17T10:08:27.618Z,22.28
2023-05-17T10:10:56.297Z,22.52
2023-05-17T10:13:25.887Z,22.64
2023-05-17T10:15:53.680Z,22.68
2023-05-17T10:18:21.150Z,22.60
2023-05-17T10:20:49.199Z,22.31
2023-05-17T10:23:17.078Z,22.00
2023-05-17T10:25:43.888Z,21.82
2023-05-17T10:28:11.814Z,21.64
2023-05-17T10:30:38.670Z,21.46
2023-05-17T10:33:08.059Z,21.31
2023-05-17T10:35:35.887Z,21.16
2023-05-17T10:38:02.985Z,21.03
2023-05-17T10:40:30.876Z,20.96
2023-05-17T10:42:59.439Z,20.93
2023-05-17T10:45:27.680Z,20.86
2023-05-17T10:47:55.371Z,20.77
2023-05-17T10:50:26.148Z,20.68
2023-05-17T10:52:55.952Z,20.57
2023-05-17T10:55:23.655Z,20.45
2023-05-17T10:58:09.933Z,20.35
2023-05-17T11:00:41.251Z,20.23
2023-05-17T11:03:14.166Z,20.15
2023-05-17T11:06:00.550Z,20.12
2023-05-17T11:08:27.936Z,20.14
2023-05-17T11:11:14.115Z,20.13
2023-05-17T11:13:54.324Z,20.09
2023-05-17T11:16:22.202Z,20.00
2023-05-17T11:18:53.730Z,19.86
2023-05-17T11:21:21.623Z,19.66
2023-05-17T11:23:49.516Z,19.62
2023-05-17T11:26:18.210Z,19.70
2023-05-17T11:28:45.279Z,19.88
2023-05-17T11:31:12.736Z,20.12
2023-05-17T11:33:43.948Z,20.40
2023-05-17T11:36:21.585Z,20.77
2023-05-17T11:38:52.287Z,21.22
2023-05-17T11:41:26.848Z,21.55
2023-05-17T11:43:55.518Z,21.91
2023-05-17T11:46:23.180Z,22.24
2023-05-17T11:48:51.649Z,22.61
2023-05-17T11:51:21.362Z,22.82
2023-05-17T11:53:51.041Z,22.94
2023-05-17T11:56:19.308Z,23.01
2023-05-17T11:58:50.788Z,23.14
2023-05-17T12:01:17.570Z,23.20
2023-05-17T12:03:44.687Z,23.18
2023-05-17T12:06:15.372Z,23.17
2023-05-17T12:08:46.122Z,23.15
2023-05-17T12:11:14.847Z,23.10
2023-05-17T12:13:42.882Z,23.05
2023-05-17T12:16:11.531Z,23.14
2023-05-17T12:18:39.894Z,23.45
2023-05-17T12:21:07.459Z,23.94
2023-05-17T12:23:39.739Z,24.39
2023-05-17T12:26:06.756Z,24.65
2023-05-17T12:28:34.820Z,24.72
2023-05-17T12:31:05.190Z,24.61
2023-05-17T12:33:33.834Z,24.49
2023-05-17T12:36:01.782Z,24.50
2023-05-17T12:38:32.203Z,24.60
2023-05-17T12:41:00.694Z,24.83
2023-05-17T12:43:30.124Z,24.99
2023-05-17T12:46:03.894Z,24.95
2023-05-17T12:48:31.548Z,24.81
2023-05-17T12:50:58.463Z,24.54
2023-05-17T12:53:35.453Z,24.21
2023-05-17T12:56:02.287Z,23.83
2023-05-17T12:58:29.425Z,23.36
2023-05-17T13:00:57.507Z,22.88
2023-05-17T13:03:25.018Z,22.33
2023-05-17T13:05:58.638Z,21.85
2023-05-17T13:08:25.704Z,21.28
2023-05-17T13:10:52.501Z,20.79
2023-05-17T13:13:20.414Z,20.45
2023-05-17T13:15:50.122Z,20.13
2023-05-17T13:18:18.285Z,19.90
2023-05-17T13:20:45.325Z,19.68
2023-05-17T13:23:12.445Z,19.49
2023-05-17T13:25:39.204Z,19.29
2023-05-17T13:28:06.303Z,19.10
2023-05-17T13:30:33.058Z,18.93
2023-05-17T13:33:00.241Z,18.77
2023-05-17T13:35:27.160Z,18.62
2023-05-17T13:37:54.241Z,18.51
2023-05-17T13:40:21.097Z,18.41
2023-05-17T13:42:48.229Z,18.23
2023-05-17T13:45:15.051Z,18.06
2023-05-17T13:47:42.228Z,17.88
2023-05-17T13:50:09.864Z,17.69
2023-05-17T13:52:36.912Z,17.48
2023-05-17T13:55:03.864Z,17.32
2023-05-17T13:57:31.038Z,17.18
2023-05-17T13:59:57.890Z,17.00
2023-05-17T14:02:24.998Z,16.86
2023-05-17T14:04:51.938Z,16.73
2023-05-17T14:07:18.992Z,16.66
2023-05-17T14:09:46.823Z,16.55
2023-05-17T14:12:14.007Z,16.48
2023-05-17T14:14:40.881Z,16.41
2023-05-17T14:17:07.947Z,16.38
2023-05-17T14:19:34.945Z,16.35
2023-05-17T14:22:02.092Z,16.34
2023-05-17T14:24:28.926Z,16.31
2023-05-17T14:26:57.868Z,16.24
2023-05-17T14:29:24.779Z,16.20
2023-05-17T14:31:51.999Z,16.18
2023-05-17T14:34:18.916Z,16.20
2023-05-17T14:36:46.231Z,16.18
2023-05-17T14:39:13.383Z,16.17
2023-05-17T14:41:41.638Z,16.14
2023-05-17T14:44:09.647Z,16.13
2023-05-17T14:46:36.707Z,16.09
2023-05-17T14:49:03.565Z,16.10
2023-05-17T14:51:30.651Z,16.09
2023-05-17T14:53:58.110Z,16.01
2023-05-17T14:56:25.620Z,15.97
2023-05-17T14:58:52.736Z,15.87
2023-05-17T15:01:19.950Z,15.82
2023-05-17T15:03:47.025Z,15.77
2023-05-17T15:06:14.408Z,15.76
2023-05-17T15:08:41.263Z,15.73
2023-05-17T15:11:09.453Z,15.71
2023-05-17T15:13:36.442Z,15.72
2023-05-17T15:16:03.537Z,15.71
2023-05-17T15:18:30.326Z,15.70
2023-05-17T15:20:57.492Z,15.71
2023-05-17T15:23:24.263Z,15.75
2023-05-17T15:25:51.431Z,15.73
2023-05-17T15:28:20.570Z,15.68
2023-05-17T15:30:47.856Z,15.68
2023-05-17T15:33:14.870Z,15.67
2023-05-17T15:35:42.011Z,15.64
2023-05-17T15:38:08.915Z,15.59
2023-05-17T15:40:36.160Z,15.53
2023-05-17T15:43:03.048Z,15.46
2023-05-17T15:45:30.434Z,15.42
2023-05-17T15:47:57.614Z,15.35
2023-05-17T15:50:24.769Z,15.31
2023-05-17T15:52:51.605Z,15.29
2023-05-17T15:55:18.765Z,15.24
2023-05-17T15:57:46.851Z,15.21
2023-05-17T16:00:14.301Z,15.20
2023-05-17T16:02:41.340Z,15.17
2023-05-17T16:05:08.791Z,15.18
2023-05-17T16:07:35.569Z,15.17
2023-05-17T16:10:02.776Z,15.15
2023-05-17T16:12:29.685Z,15.12
2023-05-17T16:14:56.833Z,15.07
2023-05-17T16:17:23.705Z,15.03
2023-05-17T16:19:51.155Z,14.98
2023-05-17T16:22:18.027Z,14.99
2023-05-17T16:24:45.075Z,14.92
2023-05-17T16:27:11.902Z,14.86
2023-05-17T16:29:40.430Z,14.84
2023-05-17T16:32:07.926Z,14.81
2023-05-17T16:34:34.981Z,14.78
2023-05-17T16:37:02.582Z,14.72
2023-05-17T16:39:29.847Z,14.70
2023-05-17T16:41:56.735Z,14.68
2023-05-17T16:44:23.805Z,14.64
2023-05-17T16:46:50.827Z,14.60
2023-05-17T16:49:17.879Z,14.56
2023-05-17T16:51:45.533Z,14.49
2023-05-17T16:54:12.651Z,14.42
2023-05-17T16:56:39.444Z,14.34
2023-05-17T16:59:06.581Z,14.31
2023-05-17T17:01:33.412Z,14.29
2023-05-17T17:04:00.757Z,14.28
2023-05-17T17:06:27.738Z,14.24
2023-05-17T17:08:54.916Z,14.16
2023-05-17T17:11:24.374Z,14.10
2023-05-17T17:13:51.437Z,14.07
2023-05-17T17:16:18.447Z,14.01
2023-05-17T17:18:47.233Z,13.95
2023-05-17T17:21:14.748Z,13.89
2023-05-17T17:23:43.254Z,13.87
2023-05-17T17:26:11.367Z,13.83
2023-05-17T17:28:38.628Z,13.78
2023-05-17T17:31:06.312Z,13.77
2023-05-17T17:33:33.650Z,13.72
2023-05-17T17:36:00.573Z,13.69
2023-05-17T17:38:27.772Z,13.65
2023-05-17T17:40:56.507Z,13.61
2023-05-17T17:43:23.566Z,13.61
2023-05-17T17:45:50.639Z,13.58
2023-05-17T17:48:17.705Z,13.56
2023-05-17T17:50:44.498Z,13.53
2023-05-17T17:53:11.654Z,13.50
2023-05-17T17:55:38.459Z,13.48
2023-05-17T17:58:05.468Z,13.45
2023-05-17T18:00:32.407Z,13.41
2023-05-17T18:02:59.573Z,13.35
2023-05-17T18:05:26.538Z,13.31
2023-05-17T18:07:53.708Z,13.29
2023-05-17T18:10:20.555Z,13.26
2023-05-17T18:12:49.582Z,13.23
2023-05-17T18:15:17.860Z,13.19
2023-05-17T18:17:44.906Z,13.18
2023-05-17T18:20:11.993Z,13.10
2023-05-17T18:22:39.128Z,13.08
2023-05-17T18:25:06.089Z,13.06
2023-05-17T18:27:33.549Z,13.02
2023-05-17T18:30:00.390Z,13.02
2023-05-17T18:32:27.604Z,13.00
2023-05-17T18:34:55.177Z,12.98
2023-05-17T18:37:22.547Z,12.98
2023-05-17T18:39:49.469Z,12.94
2023-05-17T18:42:16.552Z,12.93
2023-05-17T18:44:43.345Z,12.90
2023-05-17T18:47:11.819Z,12.90
2023-05-17T18:49:41.925Z,12.88
2023-05-17T18:52:09.029Z,12.86
2023-05-17T18:54:35.790Z,12.85
2023-05-17T18:57:02.915Z,12.85
2023-05-17T18:59:29.756Z,12.84
2023-05-17T19:01:56.866Z,12.83
2023-05-17T19:04:23.714Z,12.85
2023-05-17T19:06:50.959Z,12.85
2023-05-17T19:09:17.737Z,12.82
2023-05-17T19:11:44.767Z,12.80
2023-05-17T19:14:11.592Z,12.81
2023-05-17T19:16:39.161Z,12.80
2023-05-17T19:19:07.844Z,12.78
2023-05-17T19:21:35.258Z,12.77
2023-05-17T19:24:02.120Z,12.75
2023-05-17T19:26:29.229Z,12.75
2023-05-17T19:28:55.992Z,12.75
2023-05-17T19:31:23.080Z,12.72
2023-05-17T19:33:49.840Z,12.69
2023-05-17T19:36:16.994Z,12.68
2023-05-17T19:38:43.743Z,12.66
2023-05-17T19:41:10.816Z,12.62
2023-05-17T19:43:38.658Z,12.59
2023-05-17T19:46:09.361Z,12.57
2023-05-17T19:48:36.589Z,12.55
2023-05-17T19:51:03.766Z,12.53
2023-05-17T19:53:40.171Z,12.51
2023-05-17T19:56:11.269Z,12.52
2023-05-17T19:58:38.075Z,12.46
2023-05-17T20:01:05.232Z,12.43
2023-05-17T20:03:32.072Z,12.39
2023-05-17T20:05:59.200Z,12.37
2023-05-17T20:08:26.243Z,12.36
2023-05-17T20:10:53.353Z,12.34
2023-05-17T20:13:24.082Z,12.32
2023-05-17T20:15:51.470Z,12.30
2023-05-17T20:18:18.605Z,12.27
2023-05-17T20:20:45.753Z,12.25
2023-05-17T20:23:13.559Z,12.23
2023-05-17T20:25:41.919Z,12.23
2023-05-17T20:28:08.689Z,12.23
2023-05-17T20:30:36.089Z,12.21
2023-05-17T20:33:02.961Z,12.19
2023-05-17T20:35:30.068Z,12.17
2023-05-17T20:37:56.888Z,12.17
2023-05-17T20:40:24.045Z,12.11
2023-05-17T20:42:53.024Z,12.04
2023-05-17T20:45:20.160Z,11.99
2023-05-17T20:47:47.071Z,11.95
2023-05-17T20:50:15.488Z,11.91
2023-05-17T20:52:42.314Z,11.86
2023-05-17T20:55:09.708Z,11.82
2023-05-17T20:57:36.644Z,11.74
2023-05-17T21:00:05.381Z,11.69
2023-05-17T21:02:32.265Z,11.64
2023-05-17T21:05:00.888Z,11.61
2023-05-17T21:07:30.191Z,11.56
2023-05-17T21:09:57.266Z,11.54
2023-05-17T21:12:24.303Z,11.52
2023-05-17T21:15:03.663Z,11.48
2023-05-17T21:17:35.337Z,11.45
2023-05-17T21:20:02.235Z,11.45
2023-05-17T21:22:29.426Z,11.45
2023-05-17T21:24:56.229Z,11.46
2023-05-17T21:27:23.269Z,11.45
2023-05-17T21:29:50.061Z,11.42
2023-05-17T21:32:17.582Z,11.39
2023-05-17T21:34:45.029Z,11.37
2023-05-17T21:37:12.401Z,11.34
2023-05-17T21:39:39.252Z,11.34
2023-05-17T21:42:06.532Z,11.30
2023-05-17T21:44:33.386Z,11.27
2023-05-17T21:47:00.764Z,11.27
2023-05-17T21:49:28.593Z,11.25
2023-05-17T21:51:55.630Z,11.22
2023-05-17T21:54:24.215Z,11.18
2023-05-17T21:56:51.559Z,11.17
2023-05-17T21:59:18.371Z,11.14
2023-05-17T22:01:45.870Z,11.14
2023-05-17T22:04:12.759Z,11.10
2023-05-17T22:06:39.826Z,11.09
2023-05-17T22:09:06.798Z,11.10
2023-05-17T22:11:38.306Z,11.08
2023-05-17T22:14:08.180Z,11.09
2023-05-17T22:16:35.982Z,11.08
2023-05-17T22:19:04.020Z,11.08
2023-05-17T22:21:31.998Z,11.05
2023-05-17T22:23:59.512Z,11.03
2023-05-17T22:26:27.890Z,11.02
2023-05-17T22:28:55.812Z,11.02
2023-05-17T22:31:23.030Z,11.00
2023-05-17T22:33:50.518Z,11.00
2023-05-17T22:36:19.213Z,11.00
2023-05-17T22:38:46.444Z,11.00
2023-05-17T22:41:13.538Z,11.02
2023-05-17T22:43:40.376Z,11.02
2023-05-17T22:46:07.511Z,10.99
2023-05-17T22:48:37.449Z,10.95
2023-05-17T22:51:04.779Z,10.93
2023-05-17T22:53:31.879Z,10.90
2023-05-17T22:55:58.994Z,10.89
2023-05-17T22:58:26.016Z,10.87
2023-05-17T23:00:53.239Z,10.86
2023-05-17T23:03:20.285Z,10.84
2023-05-17T23:05:47.741Z,10.82
2023-05-17T23:08:17.725Z,10.83
2023-05-17T23:10:44.923Z,10.82
2023-05-17T23:13:12.154Z,10.81
2023-05-17T23:15:40.744Z,10.79
2023-05-17T23:18:07.731Z,10.79
2023-05-17T23:20:35.171Z,10.78
2023-05-17T23:23:02.194Z,10.78
2023-05-17T23:25:29.684Z,10.76
2023-05-17T23:27:58.231Z,10.76
2023-05-17T23:30:26.447Z,10.78
2023-05-17T23:32:55.292Z,10.75
2023-05-17T23:35:23.661Z,10.75
2023-05-17T23:37:50.603Z,10.74
2023-05-17T23:40:17.682Z,10.73
2023-05-17T23:42:44.477Z,10.74
2023-05-17T23:45:11.552Z,10.71
2023-05-17T23:47:41.069Z,10.71
2023-05-17T23:50:12.118Z,10.69
2023-05-17T23:52:39.314Z,10.68
2023-05-17T23:55:07.422Z,10.67
2023-05-17T23:57:35.379Z,10.64
